Allentown, Illinois
Current Conditions -  °F | °C
As of 3:54 PM on Sunday 21 Dec 2014 (Local Time) from KPIA Reporting Station
Overcast Overcast  
Wind Chill: 32°   Ceiling: 3100
Heat Index: 39°   Visibility: 7mi
Dew Point: 30°   Wind: 10mph
Humidity: 70%   Direction: 170°S
Pressure: 30.04"   Gusts: NA
Location:  40.4817°N, 89.4923°W
Report Text: KPIA 212154Z 17009KT 7SM OVC031 04/M01 A3004 RMK AO2 SLP176 T00391011
Loading
Personal Weather Stations






























Interactive Weather Map New forecast layout! Learn more

10-Day Weather Forecast

Advertisements
Track Severe Weather on mobile